Gentle Seas — D5EU2 — position and weather

sailwx.info

Track history (hours):
 
Tides and Currents Weather Stations Pressure Air Temp Water Temp Dewpoint Dewpoint Depression Visibility Wind Speed Wind Dir Waves Ship Positions

Gentle Seas

Last reported at 2017-Dec-10 09:06 UTC. Time now 2017-Dec-12 12:40 UTC.
Position N 41°19' E 140°12'.

Length 199 m; draft 13 m.

Type: Cargo ship. MMSI: 636016161.

Date/timePositionNaut miles runAvg speedWind from/ knotsBaromVisibWave heightAir tempDewpointWater temp
2017-Dec-10 09:06N 41°19' E 140°12'112.0
2017-Dec-10 09:00N 41°19' E 140°14'712.1
2017-Dec-10 08:28N 41°23' E 140°20'611.8
2017-Dec-10 07:59N 41°26' E 140°27'510.7
2017-Dec-10 07:30N 41°28' E 140°34'610.8
2017-Dec-10 06:59N 41°31' E 140°39'612.4
2017-Dec-10 06:30N 41°35' E 140°46'611.5
2017-Dec-10 06:00N 41°38' E 140°52'611.2
2017-Dec-10 05:30N 41°39' E 140°60'611.1
2017-Dec-10 05:00N 41°39' E 141°07'713.2
2017-Dec-10 04:30N 41°40' E 141°16'712.3
2017-Dec-10 03:55N 41°40' E 141°26'511.6
2017-Dec-10 03:30N 41°40' E 141°32'611.5
2017-Dec-10 02:58N 41°40' E 141°40'  
Track history (hours):
 
Tides and Currents Weather Stations Pressure Air Temp Water Temp Dewpoint Dewpoint Depression Visibility Wind Speed Wind Dir Waves Ship Positions

Gentle Seas

Last reported at 2017-Dec-10 09:06 UTC. Time now 2017-Dec-12 12:40 UTC.
Position N 41°19' E 140°12'.

Length 199 m; draft 13 m.

Type: Cargo ship. MMSI: 636016161.

Date/timePositionNaut miles runAvg speedWind from/ knotsBaromVisibWave heightAir tempDewpointWater temp
2017-Dec-10 09:06N 41°19' E 140°12'112.0
2017-Dec-10 09:00N 41°19' E 140°14'712.1
2017-Dec-10 08:28N 41°23' E 140°20'611.8
2017-Dec-10 07:59N 41°26' E 140°27'510.7
2017-Dec-10 07:30N 41°28' E 140°34'610.8
2017-Dec-10 06:59N 41°31' E 140°39'612.4
2017-Dec-10 06:30N 41°35' E 140°46'611.5
2017-Dec-10 06:00N 41°38' E 140°52'611.2
2017-Dec-10 05:30N 41°39' E 140°60'611.1
2017-Dec-10 05:00N 41°39' E 141°07'713.2
2017-Dec-10 04:30N 41°40' E 141°16'712.3
2017-Dec-10 03:55N 41°40' E 141°26'511.6
2017-Dec-10 03:30N 41°40' E 141°32'611.5
2017-Dec-10 02:58N 41°40' E 141°40'  

Dump ship's entire track history